sensor_id;sensor_type;location;lat;lon;timestamp;P1;durP1;ratioP1;P2;durP2;ratioP2
19691;SDS011;42748;50.016;19.890;2023-10-13T00:01:23;28.13;;;14.55;;
19691;SDS011;42748;50.016;19.890;2023-10-13T00:03:51;26.55;;;13.98;;
19691;SDS011;42748;50.016;19.890;2023-10-13T00:06:20;27.33;;;12.90;;
19691;SDS011;42748;50.016;19.890;2023-10-13T00:08:47;25.00;;;12.48;;
19691;SDS011;42748;50.016;19.890;2023-10-13T00:11:15;28.40;;;12.73;;
19691;SDS011;42748;50.016;19.890;2023-10-13T00:13:45;26.92;;;12.23;;
19691;SDS011;42748;50.016;19.890;2023-10-13T00:16:20;23.23;;;11.82;;
19691;SDS011;42748;50.016;19.890;2023-10-13T00:18:49;24.60;;;11.98;;
19691;SDS011;42748;50.016;19.890;2023-10-13T00:21:21;24.00;;;12.23;;
19691;SDS011;42748;50.016;19.890;2023-10-13T00:23:58;22.00;;;10.88;;
19691;SDS011;42748;50.016;19.890;2023-10-13T00:26:33;22.42;;;11.80;;
19691;SDS011;42748;50.016;19.890;2023-10-13T00:29:03;23.80;;;11.68;;
19691;SDS011;42748;50.016;19.890;2023-10-13T00:31:37;24.70;;;11.73;;
19691;SDS011;42748;50.016;19.890;2023-10-13T00:34:08;24.77;;;11.65;;
19691;SDS011;42748;50.016;19.890;2023-10-13T00:36:40;26.80;;;12.15;;
19691;SDS011;42748;50.016;19.890;2023-10-13T00:39:27;18.92;;;10.57;;
19691;SDS011;42748;50.016;19.890;2023-10-13T00:41:55;20.63;;;11.18;;
19691;SDS011;42748;50.016;19.890;2023-10-13T00:44:33;17.38;;;9.90;;
19691;SDS011;42748;50.016;19.890;2023-10-13T00:47:15;24.25;;;10.93;;
19691;SDS011;42748;50.016;19.890;2023-10-13T00:50:01;24.02;;;9.88;;
19691;SDS011;42748;50.016;19.890;2023-10-13T00:52:30;19.67;;;9.35;;
19691;SDS011;42748;50.016;19.890;2023-10-13T00:54:59;19.15;;;9.00;;
19691;SDS011;42748;50.016;19.890;2023-10-13T00:57:27;18.58;;;9.10;;
19691;SDS011;42748;50.016;19.890;2023-10-13T00:59:56;21.73;;;9.52;;
19691;SDS011;42748;50.016;19.890;2023-10-13T01:02:24;17.85;;;8.98;;
19691;SDS011;42748;50.016;19.890;2023-10-13T01:05:04;16.70;;;8.70;;
19691;SDS011;42748;50.016;19.890;2023-10-13T01:07:37;18.70;;;9.60;;
19691;SDS011;42748;50.016;19.890;2023-10-13T01:10:09;19.00;;;9.77;;
19691;SDS011;42748;50.016;19.890;2023-10-13T01:12:42;21.40;;;9.52;;
19691;SDS011;42748;50.016;19.890;2023-10-13T01:15:10;20.40;;;10.13;;
19691;SDS011;42748;50.016;19.890;2023-10-13T01:17:38;21.30;;;10.48;;
19691;SDS011;42748;50.016;19.890;2023-10-13T01:20:06;17.20;;;10.55;;
19691;SDS011;42748;50.016;19.890;2023-10-13T01:22:34;21.83;;;10.73;;
19691;SDS011;42748;50.016;19.890;2023-10-13T01:25:02;22.58;;;11.32;;
19691;SDS011;42748;50.016;19.890;2023-10-13T01:27:39;25.92;;;11.40;;
19691;SDS011;42748;50.016;19.890;2023-10-13T01:30:08;22.52;;;10.43;;
19691;SDS011;42748;50.016;19.890;2023-10-13T01:32:50;19.40;;;10.75;;
19691;SDS011;42748;50.016;19.890;2023-10-13T01:35:18;20.98;;;10.70;;
19691;SDS011;42748;50.016;19.890;2023-10-13T01:37:51;19.08;;;10.32;;
19691;SDS011;42748;50.016;19.890;2023-10-13T01:40:19;25.30;;;10.98;;
19691;SDS011;42748;50.016;19.890;2023-10-13T01:42:47;21.65;;;10.30;;
19691;SDS011;42748;50.016;19.890;2023-10-13T01:45:22;22.63;;;9.40;;
19691;SDS011;42748;50.016;19.890;2023-10-13T01:47:55;21.65;;;9.48;;
19691;SDS011;42748;50.016;19.890;2023-10-13T01:50:23;18.52;;;9.02;;
19691;SDS011;42748;50.016;19.890;2023-10-13T01:52:56;18.35;;;9.50;;
19691;SDS011;42748;50.016;19.890;2023-10-13T01:55:39;20.60;;;9.27;;
19691;SDS011;42748;50.016;19.890;2023-10-13T01:58:14;22.60;;;8.70;;
19691;SDS011;42748;50.016;19.890;2023-10-13T02:00:43;19.77;;;9.57;;
19691;SDS011;42748;50.016;19.890;2023-10-13T02:03:11;21.83;;;10.82;;
19691;SDS011;42748;50.016;19.890;2023-10-13T02:05:43;16.33;;;9.38;;
19691;SDS011;42748;50.016;19.890;2023-10-13T02:08:15;21.45;;;10.32;;
19691;SDS011;42748;50.016;19.890;2023-10-13T02:11:05;21.30;;;10.23;;
19691;SDS011;42748;50.016;19.890;2023-10-13T02:13:35;23.98;;;11.55;;
19691;SDS011;42748;50.016;19.890;2023-10-13T02:16:15;25.35;;;10.85;;
19691;SDS011;42748;50.016;19.890;2023-10-13T02:18:45;20.60;;;10.23;;
19691;SDS011;42748;50.016;19.890;2023-10-13T02:21:18;20.88;;;10.45;;
19691;SDS011;42748;50.016;19.890;2023-10-13T02:23:45;21.75;;;10.68;;
19691;SDS011;42748;50.016;19.890;2023-10-13T02:26:26;21.23;;;10.38;;
19691;SDS011;42748;50.016;19.890;2023-10-13T02:28:58;20.02;;;10.75;;
19691;SDS011;42748;50.016;19.890;2023-10-13T02:31:27;21.77;;;10.93;;
19691;SDS011;42748;50.016;19.890;2023-10-13T02:33:55;17.60;;;9.50;;
19691;SDS011;42748;50.016;19.890;2023-10-13T02:36:23;20.52;;;10.38;;
19691;SDS011;42748;50.016;19.890;2023-10-13T02:39:03;25.25;;;11.68;;
19691;SDS011;42748;50.016;19.890;2023-10-13T02:41:35;19.88;;;10.35;;
19691;SDS011;42748;50.016;19.890;2023-10-13T02:44:06;20.35;;;10.30;;
19691;SDS011;42748;50.016;19.890;2023-10-13T02:46:40;17.10;;;9.18;;
19691;SDS011;42748;50.016;19.890;2023-10-13T02:49:08;18.30;;;8.70;;
19691;SDS011;42748;50.016;19.890;2023-10-13T02:51:39;17.50;;;9.15;;
19691;SDS011;42748;50.016;19.890;2023-10-13T02:54:08;20.38;;;9.35;;
19691;SDS011;42748;50.016;19.890;2023-10-13T02:56:45;18.63;;;9.13;;
19691;SDS011;42748;50.016;19.890;2023-10-13T02:59:23;18.35;;;9.40;;
19691;SDS011;42748;50.016;19.890;2023-10-13T03:02:15;17.50;;;9.27;;
19691;SDS011;42748;50.016;19.890;2023-10-13T03:04:52;23.30;;;9.88;;
19691;SDS011;42748;50.016;19.890;2023-10-13T03:07:35;17.30;;;9.32;;
19691;SDS011;42748;50.016;19.890;2023-10-13T03:10:04;18.00;;;9.55;;
19691;SDS011;42748;50.016;19.890;2023-10-13T03:12:39;17.83;;;9.07;;
19691;SDS011;42748;50.016;19.890;2023-10-13T03:15:07;20.85;;;10.32;;
19691;SDS011;42748;50.016;19.890;2023-10-13T03:17:45;25.90;;;11.80;;
19691;SDS011;42748;50.016;19.890;2023-10-13T03:20:14;22.05;;;12.15;;
19691;SDS011;42748;50.016;19.890;2023-10-13T03:22:42;20.08;;;11.63;;
19691;SDS011;42748;50.016;19.890;2023-10-13T03:25:14;22.55;;;11.70;;
19691;SDS011;42748;50.016;19.890;2023-10-13T03:27:56;20.98;;;11.50;;
19691;SDS011;42748;50.016;19.890;2023-10-13T03:30:27;21.92;;;11.80;;
19691;SDS011;42748;50.016;19.890;2023-10-13T03:33:11;18.63;;;11.80;;
19691;SDS011;42748;50.016;19.890;2023-10-13T03:35:40;22.67;;;12.07;;
19691;SDS011;42748;50.016;19.890;2023-10-13T03:38:09;21.65;;;11.82;;
19691;SDS011;42748;50.016;19.890;2023-10-13T03:40:49;22.02;;;12.13;;
19691;SDS011;42748;50.016;19.890;2023-10-13T03:43:33;22.15;;;11.77;;
19691;SDS011;42748;50.016;19.890;2023-10-13T03:46:34;22.45;;;12.32;;
19691;SDS011;42748;50.016;19.890;2023-10-13T03:49:03;23.02;;;12.80;;
19691;SDS011;42748;50.016;19.890;2023-10-13T03:51:32;26.85;;;12.82;;
19691;SDS011;42748;50.016;19.890;2023-10-13T03:54:00;24.77;;;14.40;;
19691;SDS011;42748;50.016;19.890;2023-10-13T03:56:34;28.80;;;15.70;;
19691;SDS011;42748;50.016;19.890;2023-10-13T03:59:07;25.95;;;14.45;;
19691;SDS011;42748;50.016;19.890;2023-10-13T04:01:58;29.05;;;15.20;;
19691;SDS011;42748;50.016;19.890;2023-10-13T04:04:27;28.40;;;14.88;;
19691;SDS011;42748;50.016;19.890;2023-10-13T04:07:02;29.30;;;15.20;;
19691;SDS011;42748;50.016;19.890;2023-10-13T04:09:29;29.83;;;15.48;;
19691;SDS011;42748;50.016;19.890;2023-10-13T04:11:58;26.55;;;14.93;;
19691;SDS011;42748;50.016;19.890;2023-10-13T04:14:32;27.90;;;14.85;;
19691;SDS011;42748;50.016;19.890;2023-10-13T04:17:15;28.90;;;14.15;;
19691;SDS011;42748;50.016;19.890;2023-10-13T04:19:50;25.45;;;14.18;;
19691;SDS011;42748;50.016;19.890;2023-10-13T04:22:37;27.45;;;14.07;;
19691;SDS011;42748;50.016;19.890;2023-10-13T04:25:17;28.38;;;14.13;;
19691;SDS011;42748;50.016;19.890;2023-10-13T04:28:05;25.75;;;14.10;;
19691;SDS011;42748;50.016;19.890;2023-10-13T04:30:39;29.60;;;14.35;;
19691;SDS011;42748;50.016;19.890;2023-10-13T04:33:26;25.02;;;13.75;;
19691;SDS011;42748;50.016;19.890;2023-10-13T04:36:13;29.02;;;14.20;;
19691;SDS011;42748;50.016;19.890;2023-10-13T04:38:44;28.55;;;14.57;;
19691;SDS011;42748;50.016;19.890;2023-10-13T04:41:37;30.73;;;14.13;;
19691;SDS011;42748;50.016;19.890;2023-10-13T04:44:25;25.10;;;14.80;;
19691;SDS011;42748;50.016;19.890;2023-10-13T04:47:07;32.00;;;15.25;;
19691;SDS011;42748;50.016;19.890;2023-10-13T04:49:38;35.05;;;16.25;;
19691;SDS011;42748;50.016;19.890;2023-10-13T04:52:13;33.13;;;16.92;;
19691;SDS011;42748;50.016;19.890;2023-10-13T04:54:59;29.08;;;15.73;;
19691;SDS011;42748;50.016;19.890;2023-10-13T04:57:44;32.63;;;16.02;;
19691;SDS011;42748;50.016;19.890;2023-10-13T05:00:21;30.00;;;15.70;;
19691;SDS011;42748;50.016;19.890;2023-10-13T05:02:49;30.25;;;15.82;;
19691;SDS011;42748;50.016;19.890;2023-10-13T05:05:49;30.48;;;15.95;;
19691;SDS011;42748;50.016;19.890;2023-10-13T05:08:34;29.42;;;15.45;;
19691;SDS011;42748;50.016;19.890;2023-10-13T05:11:34;28.38;;;15.60;;
19691;SDS011;42748;50.016;19.890;2023-10-13T05:14:21;28.17;;;15.30;;
19691;SDS011;42748;50.016;19.890;2023-10-13T05:17:07;26.95;;;15.20;;
19691;SDS011;42748;50.016;19.890;2023-10-13T05:19:55;29.42;;;15.20;;
19691;SDS011;42748;50.016;19.890;2023-10-13T05:22:41;28.25;;;14.68;;
19691;SDS011;42748;50.016;19.890;2023-10-13T05:25:27;29.48;;;14.38;;
19691;SDS011;42748;50.016;19.890;2023-10-13T05:28:14;27.42;;;14.70;;
19691;SDS011;42748;50.016;19.890;2023-10-13T05:31:02;31.55;;;15.55;;
19691;SDS011;42748;50.016;19.890;2023-10-13T05:33:48;30.33;;;15.30;;
19691;SDS011;42748;50.016;19.890;2023-10-13T05:36:35;30.27;;;15.48;;
19691;SDS011;42748;50.016;19.890;2023-10-13T05:39:23;31.38;;;15.63;;
19691;SDS011;42748;50.016;19.890;2023-10-13T05:42:09;30.80;;;15.73;;
19691;SDS011;42748;50.016;19.890;2023-10-13T05:44:56;30.17;;;15.40;;
19691;SDS011;42748;50.016;19.890;2023-10-13T05:47:35;29.17;;;15.02;;
19691;SDS011;42748;50.016;19.890;2023-10-13T05:50:06;32.38;;;15.73;;
19691;SDS011;42748;50.016;19.890;2023-10-13T05:52:54;29.00;;;16.25;;
19691;SDS011;42748;50.016;19.890;2023-10-13T05:55:25;28.95;;;15.60;;
19691;SDS011;42748;50.016;19.890;2023-10-13T05:58:12;24.83;;;14.88;;
19691;SDS011;42748;50.016;19.890;2023-10-13T06:00:58;24.33;;;14.07;;
19691;SDS011;42748;50.016;19.890;2023-10-13T06:03:45;29.90;;;14.65;;
19691;SDS011;42748;50.016;19.890;2023-10-13T06:06:31;29.02;;;15.07;;
19691;SDS011;42748;50.016;19.890;2023-10-13T06:09:18;31.00;;;15.35;;
19691;SDS011;42748;50.016;19.890;2023-10-13T06:12:04;30.58;;;15.05;;
19691;SDS011;42748;50.016;19.890;2023-10-13T06:14:50;30.38;;;14.35;;
19691;SDS011;42748;50.016;19.890;2023-10-13T06:17:36;27.83;;;14.10;;
19691;SDS011;42748;50.016;19.890;2023-10-13T06:20:23;29.70;;;14.63;;
19691;SDS011;42748;50.016;19.890;2023-10-13T06:23:09;31.65;;;14.55;;
19691;SDS011;42748;50.016;19.890;2023-10-13T06:25:55;27.75;;;13.20;;
19691;SDS011;42748;50.016;19.890;2023-10-13T06:28:42;25.38;;;12.45;;
19691;SDS011;42748;50.016;19.890;2023-10-13T06:31:10;22.00;;;12.75;;
19691;SDS011;42748;50.016;19.890;2023-10-13T06:33:53;27.08;;;12.60;;
19691;SDS011;42748;50.016;19.890;2023-10-13T06:36:22;26.73;;;12.35;;
19691;SDS011;42748;50.016;19.890;2023-10-13T06:38:50;23.08;;;11.57;;
19691;SDS011;42748;50.016;19.890;2023-10-13T06:41:43;26.95;;;11.43;;
19691;SDS011;42748;50.016;19.890;2023-10-13T06:44:11;28.80;;;12.60;;
19691;SDS011;42748;50.016;19.890;2023-10-13T06:46:42;26.63;;;11.95;;
19691;SDS011;42748;50.016;19.890;2023-10-13T06:49:11;30.38;;;12.18;;
19691;SDS011;42748;50.016;19.890;2023-10-13T06:51:40;28.35;;;12.48;;
19691;SDS011;42748;50.016;19.890;2023-10-13T06:54:09;25.75;;;12.30;;
19691;SDS011;42748;50.016;19.890;2023-10-13T06:56:45;30.98;;;12.43;;
19691;SDS011;42748;50.016;19.890;2023-10-13T06:59:13;26.60;;;12.80;;
19691;SDS011;42748;50.016;19.890;2023-10-13T07:01:41;21.90;;;11.85;;
19691;SDS011;42748;50.016;19.890;2023-10-13T07:04:11;26.75;;;12.10;;
19691;SDS011;42748;50.016;19.890;2023-10-13T07:06:43;28.17;;;11.50;;
19691;SDS011;42748;50.016;19.890;2023-10-13T07:09:16;21.70;;;11.00;;
19691;SDS011;42748;50.016;19.890;2023-10-13T07:12:05;26.10;;;11.27;;
19691;SDS011;42748;50.016;19.890;2023-10-13T07:14:52;24.00;;;11.65;;
19691;SDS011;42748;50.016;19.890;2023-10-13T07:17:26;25.23;;;12.18;;
19691;SDS011;42748;50.016;19.890;2023-10-13T07:19:54;23.85;;;11.75;;
19691;SDS011;42748;50.016;19.890;2023-10-13T07:22:33;17.88;;;9.80;;
19691;SDS011;42748;50.016;19.890;2023-10-13T07:25:07;21.45;;;9.63;;
19691;SDS011;42748;50.016;19.890;2023-10-13T07:27:34;21.88;;;9.43;;
19691;SDS011;42748;50.016;19.890;2023-10-13T07:30:03;20.63;;;10.00;;
19691;SDS011;42748;50.016;19.890;2023-10-13T07:32:41;24.88;;;10.73;;
19691;SDS011;42748;50.016;19.890;2023-10-13T07:35:17;24.83;;;11.35;;
19691;SDS011;42748;50.016;19.890;2023-10-13T07:37:46;21.38;;;10.45;;
19691;SDS011;42748;50.016;19.890;2023-10-13T07:40:20;26.60;;;12.30;;
19691;SDS011;42748;50.016;19.890;2023-10-13T07:42:51;28.10;;;11.52;;
19691;SDS011;42748;50.016;19.890;2023-10-13T07:45:19;25.55;;;11.95;;
19691;SDS011;42748;50.016;19.890;2023-10-13T07:47:51;26.55;;;11.23;;
19691;SDS011;42748;50.016;19.890;2023-10-13T07:50:19;21.75;;;11.32;;
19691;SDS011;42748;50.016;19.890;2023-10-13T07:52:52;23.33;;;10.75;;
19691;SDS011;42748;50.016;19.890;2023-10-13T07:55:31;20.90;;;10.77;;
19691;SDS011;42748;50.016;19.890;2023-10-13T07:58:00;23.20;;;11.05;;
19691;SDS011;42748;50.016;19.890;2023-10-13T08:00:34;22.63;;;9.70;;
19691;SDS011;42748;50.016;19.890;2023-10-13T08:03:04;17.00;;;9.52;;
19691;SDS011;42748;50.016;19.890;2023-10-13T08:05:45;25.92;;;10.07;;
19691;SDS011;42748;50.016;19.890;2023-10-13T08:08:32;20.30;;;9.15;;
19691;SDS011;42748;50.016;19.890;2023-10-13T08:11:16;17.17;;;8.20;;
19691;SDS011;42748;50.016;19.890;2023-10-13T08:13:51;16.00;;;7.60;;
19691;SDS011;42748;50.016;19.890;2023-10-13T08:16:36;16.38;;;7.93;;
19691;SDS011;42748;50.016;19.890;2023-10-13T08:19:24;13.80;;;6.78;;
19691;SDS011;42748;50.016;19.890;2023-10-13T08:22:12;17.23;;;7.43;;
19691;SDS011;42748;50.016;19.890;2023-10-13T08:24:43;13.65;;;6.45;;
19691;SDS011;42748;50.016;19.890;2023-10-13T08:27:11;12.25;;;5.95;;
19691;SDS011;42748;50.016;19.890;2023-10-13T08:29:42;16.42;;;6.82;;
19691;SDS011;42748;50.016;19.890;2023-10-13T08:32:27;14.13;;;6.90;;
19691;SDS011;42748;50.016;19.890;2023-10-13T08:34:58;15.38;;;6.43;;
19691;SDS011;42748;50.016;19.890;2023-10-13T08:37:30;10.20;;;5.85;;
19691;SDS011;42748;50.016;19.890;2023-10-13T08:40:16;12.48;;;6.70;;
19691;SDS011;42748;50.016;19.890;2023-10-13T08:43:09;16.40;;;6.80;;
19691;SDS011;42748;50.016;19.890;2023-10-13T08:45:41;15.88;;;6.43;;
19691;SDS011;42748;50.016;19.890;2023-10-13T08:48:12;14.35;;;6.40;;
19691;SDS011;42748;50.016;19.890;2023-10-13T08:50:49;16.08;;;6.18;;
19691;SDS011;42748;50.016;19.890;2023-10-13T08:53:27;12.77;;;6.22;;
19691;SDS011;42748;50.016;19.890;2023-10-13T08:58:37;16.50;;;6.72;;
19691;SDS011;42748;50.016;19.890;2023-10-13T09:01:39;12.77;;;6.93;;
19691;SDS011;42748;50.016;19.890;2023-10-13T09:04:11;13.80;;;7.18;;
19691;SDS011;42748;50.016;19.890;2023-10-13T09:06:50;12.23;;;7.28;;
19691;SDS011;42748;50.016;19.890;2023-10-13T09:12:02;19.55;;;7.82;;
19691;SDS011;42748;50.016;19.890;2023-10-13T09:14:37;16.55;;;8.05;;
19691;SDS011;42748;50.016;19.890;2023-10-13T09:17:13;17.40;;;7.03;;
19691;SDS011;42748;50.016;19.890;2023-10-13T09:20:00;10.98;;;6.65;;
19691;SDS011;42748;50.016;19.890;2023-10-13T09:22:52;15.48;;;7.05;;
19691;SDS011;42748;50.016;19.890;2023-10-13T09:28:10;15.75;;;7.22;;
19691;SDS011;42748;50.016;19.890;2023-10-13T09:30:51;14.35;;;7.10;;
19691;SDS011;42748;50.016;19.890;2023-10-13T09:33:22;10.88;;;6.63;;
19691;SDS011;42748;50.016;19.890;2023-10-13T09:36:00;11.68;;;6.28;;
19691;SDS011;42748;50.016;19.890;2023-10-13T09:38:32;16.50;;;6.90;;
19691;SDS011;42748;50.016;19.890;2023-10-13T09:41:01;16.60;;;6.70;;
19691;SDS011;42748;50.016;19.890;2023-10-13T09:43:57;13.25;;;6.55;;
19691;SDS011;42748;50.016;19.890;2023-10-13T09:46:26;13.02;;;6.43;;
19691;SDS011;42748;50.016;19.890;2023-10-13T09:48:58;13.68;;;6.45;;
19691;SDS011;42748;50.016;19.890;2023-10-13T09:51:34;12.52;;;6.78;;
19691;SDS011;42748;50.016;19.890;2023-10-13T09:56:37;14.07;;;6.00;;
19691;SDS011;42748;50.016;19.890;2023-10-13T09:59:22;14.88;;;6.50;;
19691;SDS011;42748;50.016;19.890;2023-10-13T10:01:51;16.27;;;5.85;;
19691;SDS011;42748;50.016;19.890;2023-10-13T10:04:26;14.70;;;6.13;;
19691;SDS011;42748;50.016;19.890;2023-10-13T10:06:56;17.13;;;6.53;;
19691;SDS011;42748;50.016;19.890;2023-10-13T10:09:27;14.30;;;6.40;;
19691;SDS011;42748;50.016;19.890;2023-10-13T10:12:12;12.63;;;5.88;;
19691;SDS011;42748;50.016;19.890;2023-10-13T10:17:42;14.93;;;6.50;;
19691;SDS011;42748;50.016;19.890;2023-10-13T10:20:10;12.65;;;6.20;;
19691;SDS011;42748;50.016;19.890;2023-10-13T10:22:57;11.00;;;6.10;;
19691;SDS011;42748;50.016;19.890;2023-10-13T10:25:34;10.77;;;6.10;;
19691;SDS011;42748;50.016;19.890;2023-10-13T10:28:03;13.15;;;6.75;;
19691;SDS011;42748;50.016;19.890;2023-10-13T10:30:36;16.05;;;6.75;;
19691;SDS011;42748;50.016;19.890;2023-10-13T10:33:05;13.35;;;6.57;;
19691;SDS011;42748;50.016;19.890;2023-10-13T10:35:43;14.68;;;5.97;;
19691;SDS011;42748;50.016;19.890;2023-10-13T10:38:15;19.02;;;6.47;;
19691;SDS011;42748;50.016;19.890;2023-10-13T10:41:03;14.75;;;6.53;;
19691;SDS011;42748;50.016;19.890;2023-10-13T10:46:15;16.05;;;6.15;;
19691;SDS011;42748;50.016;19.890;2023-10-13T10:48:47;11.85;;;6.00;;
19691;SDS011;42748;50.016;19.890;2023-10-13T10:51:15;14.95;;;6.25;;
19691;SDS011;42748;50.016;19.890;2023-10-13T10:53:53;11.25;;;5.72;;
19691;SDS011;42748;50.016;19.890;2023-10-13T10:56:23;12.43;;;5.80;;
19691;SDS011;42748;50.016;19.890;2023-10-13T10:59:06;12.75;;;5.97;;
19691;SDS011;42748;50.016;19.890;2023-10-13T11:01:48;11.27;;;6.07;;
19691;SDS011;42748;50.016;19.890;2023-10-13T11:04:19;14.30;;;6.47;;
19691;SDS011;42748;50.016;19.890;2023-10-13T11:06:54;13.60;;;6.03;;
19691;SDS011;42748;50.016;19.890;2023-10-13T11:09:25;13.80;;;6.05;;
19691;SDS011;42748;50.016;19.890;2023-10-13T11:11:54;16.25;;;6.38;;
19691;SDS011;42748;50.016;19.890;2023-10-13T11:14:25;8.80;;;5.40;;
19691;SDS011;42748;50.016;19.890;2023-10-13T11:16:53;12.75;;;5.97;;
19691;SDS011;42748;50.016;19.890;2023-10-13T11:19:21;10.82;;;5.95;;
19691;SDS011;42748;50.016;19.890;2023-10-13T11:22:10;16.35;;;6.15;;
19691;SDS011;42748;50.016;19.890;2023-10-13T11:24:40;12.68;;;5.65;;
19691;SDS011;42748;50.016;19.890;2023-10-13T11:27:18;11.52;;;5.43;;
19691;SDS011;42748;50.016;19.890;2023-10-13T11:30:08;12.35;;;5.47;;
19691;SDS011;42748;50.016;19.890;2023-10-13T11:32:40;12.30;;;4.90;;
19691;SDS011;42748;50.016;19.890;2023-10-13T11:35:09;12.18;;;5.38;;
19691;SDS011;42748;50.016;19.890;2023-10-13T11:37:55;12.07;;;5.20;;
19691;SDS011;42748;50.016;19.890;2023-10-13T11:40:23;12.52;;;4.95;;
19691;SDS011;42748;50.016;19.890;2023-10-13T11:43:12;11.48;;;5.40;;
19691;SDS011;42748;50.016;19.890;2023-10-13T11:45:50;11.48;;;4.95;;
19691;SDS011;42748;50.016;19.890;2023-10-13T11:48:36;9.05;;;4.85;;
19691;SDS011;42748;50.016;19.890;2023-10-13T11:51:04;11.73;;;4.95;;
19691;SDS011;42748;50.016;19.890;2023-10-13T11:53:36;12.05;;;5.00;;
19691;SDS011;42748;50.016;19.890;2023-10-13T11:56:04;11.77;;;4.85;;
19691;SDS011;42748;50.016;19.890;2023-10-13T11:58:35;12.43;;;5.22;;
19691;SDS011;42748;50.016;19.890;2023-10-13T12:01:04;11.43;;;5.18;;
19691;SDS011;42748;50.016;19.890;2023-10-13T12:03:48;9.80;;;5.10;;
19691;SDS011;42748;50.016;19.890;2023-10-13T12:06:36;12.80;;;5.05;;
19691;SDS011;42748;50.016;19.890;2023-10-13T12:09:04;10.48;;;4.70;;
19691;SDS011;42748;50.016;19.890;2023-10-13T12:11:50;13.10;;;4.82;;
19691;SDS011;42748;50.016;19.890;2023-10-13T12:14:22;10.25;;;4.93;;
19691;SDS011;42748;50.016;19.890;2023-10-13T12:17:03;12.32;;;4.43;;
19691;SDS011;42748;50.016;19.890;2023-10-13T12:19:40;10.88;;;4.97;;
19691;SDS011;42748;50.016;19.890;2023-10-13T12:22:08;10.32;;;5.18;;
19691;SDS011;42748;50.016;19.890;2023-10-13T12:24:36;9.63;;;4.95;;
19691;SDS011;42748;50.016;19.890;2023-10-13T12:27:04;12.70;;;5.40;;
19691;SDS011;42748;50.016;19.890;2023-10-13T12:29:53;9.50;;;5.13;;
19691;SDS011;42748;50.016;19.890;2023-10-13T12:32:23;11.48;;;5.18;;
19691;SDS011;42748;50.016;19.890;2023-10-13T12:34:52;9.38;;;5.00;;
19691;SDS011;42748;50.016;19.890;2023-10-13T12:37:26;13.80;;;5.72;;
19691;SDS011;42748;50.016;19.890;2023-10-13T12:40:12;11.77;;;5.15;;
19691;SDS011;42748;50.016;19.890;2023-10-13T12:42:58;11.13;;;5.00;;
19691;SDS011;42748;50.016;19.890;2023-10-13T12:45:45;11.73;;;5.50;;
19691;SDS011;42748;50.016;19.890;2023-10-13T12:48:32;8.55;;;5.10;;
19691;SDS011;42748;50.016;19.890;2023-10-13T12:51:19;9.52;;;4.80;;
19691;SDS011;42748;50.016;19.890;2023-10-13T12:54:07;12.55;;;5.43;;
19691;SDS011;42748;50.016;19.890;2023-10-13T12:56:55;11.38;;;5.00;;
19691;SDS011;42748;50.016;19.890;2023-10-13T12:59:23;9.73;;;5.50;;
19691;SDS011;42748;50.016;19.890;2023-10-13T13:01:54;14.68;;;5.15;;
19691;SDS011;42748;50.016;19.890;2023-10-13T13:04:22;8.07;;;5.28;;
19691;SDS011;42748;50.016;19.890;2023-10-13T13:06:52;10.88;;;5.38;;
19691;SDS011;42748;50.016;19.890;2023-10-13T13:09:20;9.15;;;5.35;;
19691;SDS011;42748;50.016;19.890;2023-10-13T13:11:54;9.48;;;4.90;;
19691;SDS011;42748;50.016;19.890;2023-10-13T13:14:25;10.35;;;4.90;;
19691;SDS011;42748;50.016;19.890;2023-10-13T13:16:56;9.77;;;4.95;;
19691;SDS011;42748;50.016;19.890;2023-10-13T13:19:33;12.02;;;5.35;;
19691;SDS011;42748;50.016;19.890;2023-10-13T13:22:04;10.75;;;5.07;;
19691;SDS011;42748;50.016;19.890;2023-10-13T13:24:32;10.73;;;4.70;;
19691;SDS011;42748;50.016;19.890;2023-10-13T13:26:59;9.70;;;4.47;;
19691;SDS011;42748;50.016;19.890;2023-10-13T13:29:29;11.07;;;4.88;;
19691;SDS011;42748;50.016;19.890;2023-10-13T13:31:57;9.18;;;5.00;;
19691;SDS011;42748;50.016;19.890;2023-10-13T13:34:27;9.38;;;4.90;;
19691;SDS011;42748;50.016;19.890;2023-10-13T13:36:56;9.85;;;5.15;;
19691;SDS011;42748;50.016;19.890;2023-10-13T13:39:27;10.05;;;4.72;;
19691;SDS011;42748;50.016;19.890;2023-10-13T13:41:57;11.15;;;4.90;;
19691;SDS011;42748;50.016;19.890;2023-10-13T13:44:24;12.65;;;4.75;;
19691;SDS011;42748;50.016;19.890;2023-10-13T13:47:03;10.77;;;4.90;;
19691;SDS011;42748;50.016;19.890;2023-10-13T13:49:39;9.20;;;4.65;;
19691;SDS011;42748;50.016;19.890;2023-10-13T13:52:07;10.07;;;4.93;;
19691;SDS011;42748;50.016;19.890;2023-10-13T13:54:36;9.25;;;4.65;;
19691;SDS011;42748;50.016;19.890;2023-10-13T13:57:07;11.13;;;4.65;;
19691;SDS011;42748;50.016;19.890;2023-10-13T13:59:34;8.75;;;4.53;;
19691;SDS011;42748;50.016;19.890;2023-10-13T14:02:02;8.50;;;4.72;;
19691;SDS011;42748;50.016;19.890;2023-10-13T14:04:47;9.93;;;4.93;;
19691;SDS011;42748;50.016;19.890;2023-10-13T14:07:18;10.32;;;4.72;;
19691;SDS011;42748;50.016;19.890;2023-10-13T14:09:51;12.75;;;4.97;;
19691;SDS011;42748;50.016;19.890;2023-10-13T14:12:19;11.13;;;4.45;;
19691;SDS011;42748;50.016;19.890;2023-10-13T14:15:03;8.68;;;4.55;;
19691;SDS011;42748;50.016;19.890;2023-10-13T14:17:31;12.65;;;4.65;;
19691;SDS011;42748;50.016;19.890;2023-10-13T14:20:02;8.38;;;4.50;;
19691;SDS011;42748;50.016;19.890;2023-10-13T14:22:41;10.85;;;4.55;;
19691;SDS011;42748;50.016;19.890;2023-10-13T14:25:10;10.73;;;4.70;;
19691;SDS011;42748;50.016;19.890;2023-10-13T14:27:41;16.98;;;5.82;;
19691;SDS011;42748;50.016;19.890;2023-10-13T14:30:10;16.98;;;5.65;;
19691;SDS011;42748;50.016;19.890;2023-10-13T14:32:46;12.57;;;4.90;;
19691;SDS011;42748;50.016;19.890;2023-10-13T14:35:15;17.40;;;5.20;;
19691;SDS011;42748;50.016;19.890;2023-10-13T14:37:43;15.10;;;5.30;;
19691;SDS011;42748;50.016;19.890;2023-10-13T14:40:11;14.60;;;4.80;;
19691;SDS011;42748;50.016;19.890;2023-10-13T14:42:40;13.63;;;4.60;;
19691;SDS011;42748;50.016;19.890;2023-10-13T14:45:09;8.07;;;4.43;;
19691;SDS011;42748;50.016;19.890;2023-10-13T14:47:40;11.88;;;4.70;;
19691;SDS011;42748;50.016;19.890;2023-10-13T14:50:09;12.05;;;5.07;;
19691;SDS011;42748;50.016;19.890;2023-10-13T14:52:50;7.45;;;4.80;;
19691;SDS011;42748;50.016;19.890;2023-10-13T14:55:18;10.70;;;5.03;;
19691;SDS011;42748;50.016;19.890;2023-10-13T14:57:47;10.48;;;4.70;;
19691;SDS011;42748;50.016;19.890;2023-10-13T15:00:17;12.45;;;4.90;;
19691;SDS011;42748;50.016;19.890;2023-10-13T15:02:52;13.80;;;4.93;;
19691;SDS011;42748;50.016;19.890;2023-10-13T15:05:21;9.25;;;4.40;;
19691;SDS011;42748;50.016;19.890;2023-10-13T15:07:50;8.00;;;4.75;;
19691;SDS011;42748;50.016;19.890;2023-10-13T15:10:18;6.30;;;4.18;;
19691;SDS011;42748;50.016;19.890;2023-10-13T15:12:47;11.32;;;4.53;;
19691;SDS011;42748;50.016;19.890;2023-10-13T15:15:15;11.02;;;4.65;;
19691;SDS011;42748;50.016;19.890;2023-10-13T15:17:43;12.55;;;5.13;;
19691;SDS011;42748;50.016;19.890;2023-10-13T15:20:11;10.52;;;4.55;;